sensor_id;sensor_type;location;lat;lon;timestamp;temperature;humidity
9861;DHT22;4969;52.304;4.968;2022-10-17T00:01:31;16.64;79.47
9861;DHT22;4969;52.304;4.968;2022-10-17T00:03:57;16.82;80.97
9861;DHT22;4969;52.304;4.968;2022-10-17T00:06:24;17.04;80.96
9861;DHT22;4969;52.304;4.968;2022-10-17T00:08:50;17.45;80.32
9861;DHT22;4969;52.304;4.968;2022-10-17T00:11:20;17.44;79.14
9861;DHT22;4969;52.304;4.968;2022-10-17T00:13:49;17.48;78.94
9861;DHT22;4969;52.304;4.968;2022-10-17T00:16:22;17.45;78.65
9861;DHT22;4969;52.304;4.968;2022-10-17T00:18:49;17.55;79.06
9861;DHT22;4969;52.304;4.968;2022-10-17T00:21:16;17.85;78.73
9861;DHT22;4969;52.304;4.968;2022-10-17T00:23:43;18.07;77.67
9861;DHT22;4969;52.304;4.968;2022-10-17T00:26:10;18.14;76.61
9861;DHT22;4969;52.304;4.968;2022-10-17T00:28:38;18.12;77.45
9861;DHT22;4969;52.304;4.968;2022-10-17T00:31:06;18.16;77.04
9861;DHT22;4969;52.304;4.968;2022-10-17T00:33:33;18.03;77.30
9861;DHT22;4969;52.304;4.968;2022-10-17T00:36:05;17.95;76.63
9861;DHT22;4969;52.304;4.968;2022-10-17T00:38:32;18.21;77.16
9861;DHT22;4969;52.304;4.968;2022-10-17T00:40:59;18.40;76.71
9861;DHT22;4969;52.304;4.968;2022-10-17T00:43:25;18.47;76.05
9861;DHT22;4969;52.304;4.968;2022-10-17T00:45:55;18.59;75.69
9861;DHT22;4969;52.304;4.968;2022-10-17T00:48:22;18.55;75.53
9861;DHT22;4969;52.304;4.968;2022-10-17T00:50:49;18.51;75.78
9861;DHT22;4969;52.304;4.968;2022-10-17T00:53:16;18.37;75.21
9861;DHT22;4969;52.304;4.968;2022-10-17T00:55:46;18.54;75.66
9861;DHT22;4969;52.304;4.968;2022-10-17T00:58:13;18.72;74.39
9861;DHT22;4969;52.304;4.968;2022-10-17T01:00:42;18.78;74.74
9861;DHT22;4969;52.304;4.968;2022-10-17T01:03:10;18.54;74.78
9861;DHT22;4969;52.304;4.968;2022-10-17T01:05:37;18.52;75.40
9861;DHT22;4969;52.304;4.968;2022-10-17T01:08:05;18.67;75.06
9861;DHT22;4969;52.304;4.968;2022-10-17T01:10:39;18.78;73.93
9861;DHT22;4969;52.304;4.968;2022-10-17T01:13:12;18.76;73.98
9861;DHT22;4969;52.304;4.968;2022-10-17T01:15:51;18.62;74.00
9861;DHT22;4969;52.304;4.968;2022-10-17T01:18:32;18.47;75.03
9861;DHT22;4969;52.304;4.968;2022-10-17T01:24:26;18.43;74.10
9861;DHT22;4969;52.304;4.968;2022-10-17T01:27:35;18.72;72.63
9861;DHT22;4969;52.304;4.968;2022-10-17T01:32:58;18.92;73.19
9861;DHT22;4969;52.304;4.968;2022-10-17T01:35:32;18.82;72.24
9861;DHT22;4969;52.304;4.968;2022-10-17T01:38:05;18.96;73.68
9861;DHT22;4969;52.304;4.968;2022-10-17T01:40:37;19.22;72.89
9861;DHT22;4969;52.304;4.968;2022-10-17T01:43:08;19.13;72.96
9861;DHT22;4969;52.304;4.968;2022-10-17T01:45:42;19.03;72.80
9861;DHT22;4969;52.304;4.968;2022-10-17T01:48:15;19.33;72.44
9861;DHT22;4969;52.304;4.968;2022-10-17T01:50:46;19.33;71.99
9861;DHT22;4969;52.304;4.968;2022-10-17T01:53:18;19.44;71.44
9861;DHT22;4969;52.304;4.968;2022-10-17T01:55:47;19.23;72.05
9861;DHT22;4969;52.304;4.968;2022-10-17T01:58:20;19.16;71.96
9861;DHT22;4969;52.304;4.968;2022-10-17T02:00:48;19.27;71.45
9861;DHT22;4969;52.304;4.968;2022-10-17T02:03:18;19.30;72.13
9861;DHT22;4969;52.304;4.968;2022-10-17T02:05:46;19.52;71.34
9861;DHT22;4969;52.304;4.968;2022-10-17T02:08:23;19.31;71.62
9861;DHT22;4969;52.304;4.968;2022-10-17T02:10:54;19.20;71.86
9861;DHT22;4969;52.304;4.968;2022-10-17T02:13:30;19.45;71.37
9861;DHT22;4969;52.304;4.968;2022-10-17T02:16:11;19.59;71.17
9861;DHT22;4969;52.304;4.968;2022-10-17T02:18:46;19.52;71.28
9861;DHT22;4969;52.304;4.968;2022-10-17T02:21:24;19.35;71.74
9861;DHT22;4969;52.304;4.968;2022-10-17T02:23:58;19.41;71.63
9861;DHT22;4969;52.304;4.968;2022-10-17T02:26:32;19.44;71.42
9861;DHT22;4969;52.304;4.968;2022-10-17T02:29:05;19.66;70.64
9861;DHT22;4969;52.304;4.968;2022-10-17T02:31:36;19.66;70.52
9861;DHT22;4969;52.304;4.968;2022-10-17T02:34:08;19.54;71.23
9861;DHT22;4969;52.304;4.968;2022-10-17T02:36:40;19.71;69.78
9861;DHT22;4969;52.304;4.968;2022-10-17T02:39:08;19.35;71.16
9861;DHT22;4969;52.304;4.968;2022-10-17T02:41:37;19.51;71.28
9861;DHT22;4969;52.304;4.968;2022-10-17T02:44:06;19.44;70.70
9861;DHT22;4969;52.304;4.968;2022-10-17T02:46:34;19.28;71.46
9861;DHT22;4969;52.304;4.968;2022-10-17T02:49:09;19.37;71.62
9861;DHT22;4969;52.304;4.968;2022-10-17T02:51:42;19.38;71.51
9861;DHT22;4969;52.304;4.968;2022-10-17T02:54:16;19.59;70.81
9861;DHT22;4969;52.304;4.968;2022-10-17T02:56:47;19.76;70.04
9861;DHT22;4969;52.304;4.968;2022-10-17T02:59:18;19.69;69.88
9861;DHT22;4969;52.304;4.968;2022-10-17T03:01:47;19.66;70.61
9861;DHT22;4969;52.304;4.968;2022-10-17T03:04:15;19.75;70.21
9861;DHT22;4969;52.304;4.968;2022-10-17T03:06:43;19.68;70.46
9861;DHT22;4969;52.304;4.968;2022-10-17T03:09:10;19.76;70.29
9861;DHT22;4969;52.304;4.968;2022-10-17T03:11:37;19.73;70.20
9861;DHT22;4969;52.304;4.968;2022-10-17T03:14:04;19.66;70.43
9861;DHT22;4969;52.304;4.968;2022-10-17T03:16:30;19.38;70.77
9861;DHT22;4969;52.304;4.968;2022-10-17T03:18:57;19.24;71.36
9861;DHT22;4969;52.304;4.968;2022-10-17T03:21:25;19.59;70.84
9861;DHT22;4969;52.304;4.968;2022-10-17T03:23:52;19.65;70.73
9861;DHT22;4969;52.304;4.968;2022-10-17T03:26:18;19.54;70.97
9861;DHT22;4969;52.304;4.968;2022-10-17T03:28:45;19.73;70.43
9861;DHT22;4969;52.304;4.968;2022-10-17T03:31:13;19.69;70.14
9861;DHT22;4969;52.304;4.968;2022-10-17T03:33:40;19.75;70.30
9861;DHT22;4969;52.304;4.968;2022-10-17T03:36:08;19.86;69.96
9861;DHT22;4969;52.304;4.968;2022-10-17T03:38:37;19.80;70.11
9861;DHT22;4969;52.304;4.968;2022-10-17T03:41:04;19.87;69.67
9861;DHT22;4969;52.304;4.968;2022-10-17T03:43:31;20.09;69.17
9861;DHT22;4969;52.304;4.968;2022-10-17T03:45:59;19.96;69.50
9861;DHT22;4969;52.304;4.968;2022-10-17T03:48:27;19.86;69.92
9861;DHT22;4969;52.304;4.968;2022-10-17T03:50:58;19.95;69.65
9861;DHT22;4969;52.304;4.968;2022-10-17T03:53:25;20.02;69.39
9861;DHT22;4969;52.304;4.968;2022-10-17T03:55:55;20.00;69.25
9861;DHT22;4969;52.304;4.968;2022-10-17T03:58:21;19.85;69.68
9861;DHT22;4969;52.304;4.968;2022-10-17T04:00:48;19.71;70.35
9861;DHT22;4969;52.304;4.968;2022-10-17T04:03:15;19.72;70.32
9861;DHT22;4969;52.304;4.968;2022-10-17T04:05:41;19.79;69.99
9861;DHT22;4969;52.304;4.968;2022-10-17T04:08:08;19.82;69.96
9861;DHT22;4969;52.304;4.968;2022-10-17T04:10:34;19.95;69.68
9861;DHT22;4969;52.304;4.968;2022-10-17T04:13:02;19.90;69.61
9861;DHT22;4969;52.304;4.968;2022-10-17T04:15:30;19.97;69.39
9861;DHT22;4969;52.304;4.968;2022-10-17T04:17:57;19.82;70.03
9861;DHT22;4969;52.304;4.968;2022-10-17T04:20:23;19.92;69.64
9861;DHT22;4969;52.304;4.968;2022-10-17T04:22:50;19.92;69.70
9861;DHT22;4969;52.304;4.968;2022-10-17T04:25:16;20.03;69.28
9861;DHT22;4969;52.304;4.968;2022-10-17T04:27:43;20.03;69.19
9861;DHT22;4969;52.304;4.968;2022-10-17T04:30:11;19.93;69.46
9861;DHT22;4969;52.304;4.968;2022-10-17T04:32:38;19.97;69.39
9861;DHT22;4969;52.304;4.968;2022-10-17T04:35:05;19.86;69.79
9861;DHT22;4969;52.304;4.968;2022-10-17T04:37:32;19.78;70.19
9861;DHT22;4969;52.304;4.968;2022-10-17T04:39:58;19.96;69.75
9861;DHT22;4969;52.304;4.968;2022-10-17T04:42:27;19.78;70.39
9861;DHT22;4969;52.304;4.968;2022-10-17T04:44:54;20.07;69.65
9861;DHT22;4969;52.304;4.968;2022-10-17T04:47:22;20.05;70.23
9861;DHT22;4969;52.304;4.968;2022-10-17T04:49:48;20.00;70.68
9861;DHT22;4969;52.304;4.968;2022-10-17T04:52:15;19.96;71.19
9861;DHT22;4969;52.304;4.968;2022-10-17T04:54:41;19.80;71.13
9861;DHT22;4969;52.304;4.968;2022-10-17T04:57:08;19.82;71.71
9861;DHT22;4969;52.304;4.968;2022-10-17T04:59:35;19.80;71.16
9861;DHT22;4969;52.304;4.968;2022-10-17T05:02:01;19.76;72.30
9861;DHT22;4969;52.304;4.968;2022-10-17T05:04:29;19.86;71.79
9861;DHT22;4969;52.304;4.968;2022-10-17T05:06:56;19.86;71.32
9861;DHT22;4969;52.304;4.968;2022-10-17T05:09:22;19.62;71.87
9861;DHT22;4969;52.304;4.968;2022-10-17T05:11:49;19.59;72.37
9861;DHT22;4969;52.304;4.968;2022-10-17T05:14:15;19.66;72.21
9861;DHT22;4969;52.304;4.968;2022-10-17T05:16:42;19.57;72.70
9861;DHT22;4969;52.304;4.968;2022-10-17T05:19:09;19.68;72.95
9861;DHT22;4969;52.304;4.968;2022-10-17T05:21:37;19.62;72.90
9861;DHT22;4969;52.304;4.968;2022-10-17T05:24:05;19.79;72.60
9861;DHT22;4969;52.304;4.968;2022-10-17T05:26:31;19.65;72.74
9861;DHT22;4969;52.304;4.968;2022-10-17T05:28:58;19.63;73.04
9861;DHT22;4969;52.304;4.968;2022-10-17T05:31:26;19.68;72.73
9861;DHT22;4969;52.304;4.968;2022-10-17T05:33:53;19.89;72.18
9861;DHT22;4969;52.304;4.968;2022-10-17T05:36:20;19.96;71.60
9861;DHT22;4969;52.304;4.968;2022-10-17T05:38:49;19.90;72.08
9861;DHT22;4969;52.304;4.968;2022-10-17T05:41:17;19.83;72.51
9861;DHT22;4969;52.304;4.968;2022-10-17T05:43:44;19.79;72.37
9861;DHT22;4969;52.304;4.968;2022-10-17T05:46:11;19.76;72.60
9861;DHT22;4969;52.304;4.968;2022-10-17T05:48:38;19.68;72.88
9861;DHT22;4969;52.304;4.968;2022-10-17T05:51:06;19.80;72.62
9861;DHT22;4969;52.304;4.968;2022-10-17T05:53:35;19.89;72.33
9861;DHT22;4969;52.304;4.968;2022-10-17T05:56:05;19.92;72.06
9861;DHT22;4969;52.304;4.968;2022-10-17T05:58:32;19.90;72.17
9861;DHT22;4969;52.304;4.968;2022-10-17T06:01:01;19.68;72.97
9861;DHT22;4969;52.304;4.968;2022-10-17T06:03:29;19.71;72.79
9861;DHT22;4969;52.304;4.968;2022-10-17T06:06:01;19.95;72.05
9861;DHT22;4969;52.304;4.968;2022-10-17T06:08:27;19.78;72.66
9861;DHT22;4969;52.304;4.968;2022-10-17T06:10:54;19.72;72.40
9861;DHT22;4969;52.304;4.968;2022-10-17T06:13:22;19.57;73.29
9861;DHT22;4969;52.304;4.968;2022-10-17T06:15:49;19.71;73.08
9861;DHT22;4969;52.304;4.968;2022-10-17T06:18:15;19.73;72.97
9861;DHT22;4969;52.304;4.968;2022-10-17T06:20:42;19.79;72.78
9861;DHT22;4969;52.304;4.968;2022-10-17T06:23:08;19.75;72.57
9861;DHT22;4969;52.304;4.968;2022-10-17T06:25:35;19.78;72.86
9861;DHT22;4969;52.304;4.968;2022-10-17T06:28:01;19.72;72.00
9861;DHT22;4969;52.304;4.968;2022-10-17T06:30:30;19.79;72.85
9861;DHT22;4969;52.304;4.968;2022-10-17T06:32:57;19.78;72.69
9861;DHT22;4969;52.304;4.968;2022-10-17T06:35:23;19.66;73.18
9861;DHT22;4969;52.304;4.968;2022-10-17T06:37:50;19.58;73.38
9861;DHT22;4969;52.304;4.968;2022-10-17T06:40:16;19.50;73.56
9861;DHT22;4969;52.304;4.968;2022-10-17T06:42:43;19.57;73.44
9861;DHT22;4969;52.304;4.968;2022-10-17T06:45:10;19.51;74.01
9861;DHT22;4969;52.304;4.968;2022-10-17T06:47:38;19.69;73.21
9861;DHT22;4969;52.304;4.968;2022-10-17T06:50:05;19.73;72.55
9861;DHT22;4969;52.304;4.968;2022-10-17T06:52:32;19.61;73.24
9861;DHT22;4969;52.304;4.968;2022-10-17T06:54:58;19.51;73.77
9861;DHT22;4969;52.304;4.968;2022-10-17T06:57:25;19.50;73.74
9861;DHT22;4969;52.304;4.968;2022-10-17T06:59:52;19.62;73.27
9861;DHT22;4969;52.304;4.968;2022-10-17T07:02:19;19.66;73.10
9861;DHT22;4969;52.304;4.968;2022-10-17T07:04:49;19.76;72.78
9861;DHT22;4969;52.304;4.968;2022-10-17T07:07:15;19.80;72.30
9861;DHT22;4969;52.304;4.968;2022-10-17T07:09:42;19.82;72.42
9861;DHT22;4969;52.304;4.968;2022-10-17T07:12:09;19.80;72.52
9861;DHT22;4969;52.304;4.968;2022-10-17T07:14:37;19.86;72.25
9861;DHT22;4969;52.304;4.968;2022-10-17T07:17:03;19.87;72.16
9861;DHT22;4969;52.304;4.968;2022-10-17T07:19:30;19.97;71.94
9861;DHT22;4969;52.304;4.968;2022-10-17T07:21:58;19.85;72.21
9861;DHT22;4969;52.304;4.968;2022-10-17T07:24:24;19.86;72.03
9861;DHT22;4969;52.304;4.968;2022-10-17T07:26:51;19.95;72.18
9861;DHT22;4969;52.304;4.968;2022-10-17T07:29:18;19.75;72.68
9861;DHT22;4969;52.304;4.968;2022-10-17T07:31:44;19.69;72.74
9861;DHT22;4969;52.304;4.968;2022-10-17T07:34:13;19.85;72.59
9861;DHT22;4969;52.304;4.968;2022-10-17T07:36:39;19.96;72.13
9861;DHT22;4969;52.304;4.968;2022-10-17T07:39:08;19.75;72.78
9861;DHT22;4969;52.304;4.968;2022-10-17T07:41:34;19.50;73.27
9861;DHT22;4969;52.304;4.968;2022-10-17T07:44:02;19.50;73.45
9861;DHT22;4969;52.304;4.968;2022-10-17T07:46:29;19.55;73.69
9861;DHT22;4969;52.304;4.968;2022-10-17T07:48:55;19.42;74.12
9861;DHT22;4969;52.304;4.968;2022-10-17T07:51:22;19.69;73.17
9861;DHT22;4969;52.304;4.968;2022-10-17T07:53:49;19.68;73.29
9861;DHT22;4969;52.304;4.968;2022-10-17T07:56:17;19.72;73.31
9861;DHT22;4969;52.304;4.968;2022-10-17T07:58:43;19.82;72.82
9861;DHT22;4969;52.304;4.968;2022-10-17T08:01:10;19.48;73.94
9861;DHT22;4969;52.304;4.968;2022-10-17T08:03:39;19.48;74.09
9861;DHT22;4969;52.304;4.968;2022-10-17T08:06:07;19.33;74.78
9861;DHT22;4969;52.304;4.968;2022-10-17T08:08:33;19.16;75.26
9861;DHT22;4969;52.304;4.968;2022-10-17T08:11:02;19.04;75.73
9861;DHT22;4969;52.304;4.968;2022-10-17T08:13:31;19.23;75.09
9861;DHT22;4969;52.304;4.968;2022-10-17T08:15:59;19.50;74.39
9861;DHT22;4969;52.304;4.968;2022-10-17T08:18:25;19.42;74.56
9861;DHT22;4969;52.304;4.968;2022-10-17T08:20:52;19.45;74.75
9861;DHT22;4969;52.304;4.968;2022-10-17T08:23:19;19.22;75.41
9861;DHT22;4969;52.304;4.968;2022-10-17T08:25:45;19.33;75.30
9861;DHT22;4969;52.304;4.968;2022-10-17T08:28:12;19.23;75.62
9861;DHT22;4969;52.304;4.968;2022-10-17T08:30:40;18.92;76.96
9861;DHT22;4969;52.304;4.968;2022-10-17T08:33:06;18.86;77.52
9861;DHT22;4969;52.304;4.968;2022-10-17T08:35:33;19.17;76.38
9861;DHT22;4969;52.304;4.968;2022-10-17T08:37:59;19.14;76.78
9861;DHT22;4969;52.304;4.968;2022-10-17T08:40:28;19.19;76.97
9861;DHT22;4969;52.304;4.968;2022-10-17T08:43:19;19.06;78.38
9861;DHT22;4969;52.304;4.968;2022-10-17T08:45:53;18.80;78.62
9861;DHT22;4969;52.304;4.968;2022-10-17T08:48:26;18.72;79.08
9861;DHT22;4969;52.304;4.968;2022-10-17T08:50:56;18.85;78.68
9861;DHT22;4969;52.304;4.968;2022-10-17T08:53:28;18.85;78.64
9861;DHT22;4969;52.304;4.968;2022-10-17T08:55:57;19.17;77.84
9861;DHT22;4969;52.304;4.968;2022-10-17T08:58:28;18.85;78.60
9861;DHT22;4969;52.304;4.968;2022-10-17T09:01:02;18.82;79.23
9861;DHT22;4969;52.304;4.968;2022-10-17T09:03:39;18.85;79.55
9861;DHT22;4969;52.304;4.968;2022-10-17T09:06:20;18.88;79.31
9861;DHT22;4969;52.304;4.968;2022-10-17T09:08:57;18.89;79.28
9861;DHT22;4969;52.304;4.968;2022-10-17T09:11:37;19.10;78.82
9861;DHT22;4969;52.304;4.968;2022-10-17T09:14:25;19.28;79.32
9861;DHT22;4969;52.304;4.968;2022-10-17T09:17:07;19.11;79.02
9861;DHT22;4969;52.304;4.968;2022-10-17T09:19:40;19.26;78.69
9861;DHT22;4969;52.304;4.968;2022-10-17T09:22:11;19.30;78.07
9861;DHT22;4969;52.304;4.968;2022-10-17T09:24:42;19.22;78.35
9861;DHT22;4969;52.304;4.968;2022-10-17T09:27:23;19.13;78.55
9861;DHT22;4969;52.304;4.968;2022-10-17T09:29:57;19.37;76.97
9861;DHT22;4969;52.304;4.968;2022-10-17T09:32:28;19.47;76.92
9861;DHT22;4969;52.304;4.968;2022-10-17T09:34:54;19.40;77.19
9861;DHT22;4969;52.304;4.968;2022-10-17T09:37:26;19.42;77.38
9861;DHT22;4969;52.304;4.968;2022-10-17T09:39:55;19.34;77.54
9861;DHT22;4969;52.304;4.968;2022-10-17T09:42:25;19.17;78.65
9861;DHT22;4969;52.304;4.968;2022-10-17T09:44:56;19.28;78.11
9861;DHT22;4969;52.304;4.968;2022-10-17T09:47:33;19.24;78.57
9861;DHT22;4969;52.304;4.968;2022-10-17T09:50:08;19.06;79.42
9861;DHT22;4969;52.304;4.968;2022-10-17T09:52:39;19.00;79.48
9861;DHT22;4969;52.304;4.968;2022-10-17T09:55:16;18.90;80.35
9861;DHT22;4969;52.304;4.968;2022-10-17T09:57:53;18.90;80.21
9861;DHT22;4969;52.304;4.968;2022-10-17T10:00:22;18.95;80.14
9861;DHT22;4969;52.304;4.968;2022-10-17T10:02:50;19.30;78.23
9861;DHT22;4969;52.304;4.968;2022-10-17T10:05:18;19.31;78.33
9861;DHT22;4969;52.304;4.968;2022-10-17T10:08:04;19.06;80.88
9861;DHT22;4969;52.304;4.968;2022-10-17T10:10:32;18.99;80.28
9861;DHT22;4969;52.304;4.968;2022-10-17T10:13:05;19.07;79.62
9861;DHT22;4969;52.304;4.968;2022-10-17T10:15:36;19.13;80.03
9861;DHT22;4969;52.304;4.968;2022-10-17T10:18:31;19.13;81.06
9861;DHT22;4969;52.304;4.968;2022-10-17T10:21:08;19.06;80.51
9861;DHT22;4969;52.304;4.968;2022-10-17T10:23:36;19.11;79.87
9861;DHT22;4969;52.304;4.968;2022-10-17T10:26:20;18.96;80.80
9861;DHT22;4969;52.304;4.968;2022-10-17T10:28:54;18.82;81.74
9861;DHT22;4969;52.304;4.968;2022-10-17T10:31:26;18.73;81.72
9861;DHT22;4969;52.304;4.968;2022-10-17T10:33:55;18.71;82.18
9861;DHT22;4969;52.304;4.968;2022-10-17T10:36:22;18.97;79.92
9861;DHT22;4969;52.304;4.968;2022-10-17T10:38:52;18.73;81.53
9861;DHT22;4969;52.304;4.968;2022-10-17T10:41:20;18.58;82.53
9861;DHT22;4969;52.304;4.968;2022-10-17T10:43:48;18.69;81.61
9861;DHT22;4969;52.304;4.968;2022-10-17T10:46:18;18.62;82.19
9861;DHT22;4969;52.304;4.968;2022-10-17T10:48:50;18.51;82.51
9861;DHT22;4969;52.304;4.968;2022-10-17T10:51:22;18.72;81.44
9861;DHT22;4969;52.304;4.968;2022-10-17T10:53:54;18.58;81.50
9861;DHT22;4969;52.304;4.968;2022-10-17T10:56:27;18.31;82.50
9861;DHT22;4969;52.304;4.968;2022-10-17T10:59:01;18.13;83.12
9861;DHT22;4969;52.304;4.968;2022-10-17T11:01:34;18.00;83.46
9861;DHT22;4969;52.304;4.968;2022-10-17T11:04:11;18.25;82.71
9861;DHT22;4969;52.304;4.968;2022-10-17T11:06:43;18.12;81.63
9861;DHT22;4969;52.304;4.968;2022-10-17T11:09:22;18.18;82.02
9861;DHT22;4969;52.304;4.968;2022-10-17T11:11:54;17.93;80.94
9861;DHT22;4969;52.304;4.968;2022-10-17T11:14:33;18.02;80.63
9861;DHT22;4969;52.304;4.968;2022-10-17T11:17:07;18.14;79.71
9861;DHT22;4969;52.304;4.968;2022-10-17T11:19:38;18.07;79.62
9861;DHT22;4969;52.304;4.968;2022-10-17T11:22:14;18.00;79.23
9861;DHT22;4969;52.304;4.968;2022-10-17T11:24:47;18.10;79.68
9861;DHT22;4969;52.304;4.968;2022-10-17T11:27:21;17.96;78.66
9861;DHT22;4969;52.304;4.968;2022-10-17T11:29:48;17.83;79.53
9861;DHT22;4969;52.304;4.968;2022-10-17T11:32:21;17.93;79.61
9861;DHT22;4969;52.304;4.968;2022-10-17T11:34:52;17.68;79.22
9861;DHT22;4969;52.304;4.968;2022-10-17T11:37:25;17.62;81.63
9861;DHT22;4969;52.304;4.968;2022-10-17T11:39:56;17.82;81.16
9861;DHT22;4969;52.304;4.968;2022-10-17T11:42:26;17.55;79.34
9861;DHT22;4969;52.304;4.968;2022-10-17T11:44:59;17.47;79.51
9861;DHT22;4969;52.304;4.968;2022-10-17T11:47:33;17.38;79.59
9861;DHT22;4969;52.304;4.968;2022-10-17T11:50:04;17.28;80.36
9861;DHT22;4969;52.304;4.968;2022-10-17T11:52:38;17.35;80.74
9861;DHT22;4969;52.304;4.968;2022-10-17T11:55:12;17.57;82.13
9861;DHT22;4969;52.304;4.968;2022-10-17T11:57:58;17.44;80.49
9861;DHT22;4969;52.304;4.968;2022-10-17T12:00:37;17.35;82.72
9861;DHT22;4969;52.304;4.968;2022-10-17T12:03:18;17.38;82.53
9861;DHT22;4969;52.304;4.968;2022-10-17T12:05:49;17.87;82.33
9861;DHT22;4969;52.304;4.968;2022-10-17T12:08:24;17.97;81.80
9861;DHT22;4969;52.304;4.968;2022-10-17T12:10:58;18.28;82.16
9861;DHT22;4969;52.304;4.968;2022-10-17T12:13:46;18.44;80.70
9861;DHT22;4969;52.304;4.968;2022-10-17T12:16:41;18.47;80.51
9861;DHT22;4969;52.304;4.968;2022-10-17T12:19:23;18.18;81.19
9861;DHT22;4969;52.304;4.968;2022-10-17T12:21:54;18.34;81.34
9861;DHT22;4969;52.304;4.968;2022-10-17T12:24:32;18.24;82.04
9861;DHT22;4969;52.304;4.968;2022-10-17T12:27:21;18.62;81.38
9861;DHT22;4969;52.304;4.968;2022-10-17T12:29:48;18.89;80.30
9861;DHT22;4969;52.304;4.968;2022-10-17T12:32:15;18.82;80.41
9861;DHT22;4969;52.304;4.968;2022-10-17T12:34:50;18.51;82.08
9861;DHT22;4969;52.304;4.968;2022-10-17T12:40:50;18.73;82.20
9861;DHT22;4969;52.304;4.968;2022-10-17T12:43:37;19.16;79.55
9861;DHT22;4969;52.304;4.968;2022-10-17T12:46:08;19.04;79.74
9861;DHT22;4969;52.304;4.968;2022-10-17T12:49:01;19.44;78.28
9861;DHT22;4969;52.304;4.968;2022-10-17T12:51:28;19.23;78.98
9861;DHT22;4969;52.304;4.968;2022-10-17T12:53:57;19.06;79.27
9861;DHT22;4969;52.304;4.968;2022-10-17T12:56:34;19.23;79.05
9861;DHT22;4969;52.304;4.968;2022-10-17T12:59:07;19.24;79.21
9861;DHT22;4969;52.304;4.968;2022-10-17T13:01:37;19.30;78.90
9861;DHT22;4969;52.304;4.968;2022-10-17T13:04:08;19.30;79.06
9861;DHT22;4969;52.304;4.968;2022-10-17T13:06:42;19.22;79.33
9861;DHT22;4969;52.304;4.968;2022-10-17T13:09:17;19.26;79.48
9861;DHT22;4969;52.304;4.968;2022-10-17T13:11:48;18.89;80.58
9861;DHT22;4969;52.304;4.968;2022-10-17T13:14:17;18.92;80.81
9861;DHT22;4969;52.304;4.968;2022-10-17T13:16:51;19.06;80.09
9861;DHT22;4969;52.304;4.968;2022-10-17T13:19:20;19.16;79.28
9861;DHT22;4969;52.304;4.968;2022-10-17T13:21:51;19.33;78.60
9861;DHT22;4969;52.304;4.968;2022-10-17T13:24:22;19.07;78.99
9861;DHT22;4969;52.304;4.968;2022-10-17T13:26:50;19.04;79.45
9861;DHT22;4969;52.304;4.968;2022-10-17T13:29:17;19.10;79.87
9861;DHT22;4969;52.304;4.968;2022-10-17T13:31:51;19.19;79.54
9861;DHT22;4969;52.304;4.968;2022-10-17T13:34:19;19.37;78.95
9861;DHT22;4969;52.304;4.968;2022-10-17T13:36:47;19.42;78.51
9861;DHT22;4969;52.304;4.968;2022-10-17T13:39:16;19.42;78.51
9861;DHT22;4969;52.304;4.968;2022-10-17T13:41:44;19.40;77.89
9861;DHT22;4969;52.304;4.968;2022-10-17T13:44:17;19.47;78.32
9861;DHT22;4969;52.304;4.968;2022-10-17T13:46:44;19.33;78.01
9861;DHT22;4969;52.304;4.968;2022-10-17T13:49:31;19.30;78.24
9861;DHT22;4969;52.304;4.968;2022-10-17T13:52:00;19.26;78.37
9861;DHT22;4969;52.304;4.968;2022-10-17T13:54:33;19.44;77.51
9861;DHT22;4969;52.304;4.968;2022-10-17T13:57:00;19.59;77.57
9861;DHT22;4969;52.304;4.968;2022-10-17T13:59:32;19.41;77.95
9861;DHT22;4969;52.304;4.968;2022-10-17T14:01:59;19.66;77.13
9861;DHT22;4969;52.304;4.968;2022-10-17T14:04:27;19.83;77.04
9861;DHT22;4969;52.304;4.968;2022-10-17T14:06:53;19.72;77.17
9861;DHT22;4969;52.304;4.968;2022-10-17T14:09:22;19.95;76.34
9861;DHT22;4969;52.304;4.968;2022-10-17T14:11:59;19.89;76.45
9861;DHT22;4969;52.304;4.968;2022-10-17T14:14:28;19.87;76.02
9861;DHT22;4969;52.304;4.968;2022-10-17T14:16:55;19.76;76.25
9861;DHT22;4969;52.304;4.968;2022-10-17T14:19:24;20.07;75.20
9861;DHT22;4969;52.304;4.968;2022-10-17T14:21:53;20.02;75.61
9861;DHT22;4969;52.304;4.968;2022-10-17T14:24:26;19.87;75.71
9861;DHT22;4969;52.304;4.968;2022-10-17T14:26:54;19.66;76.58
9861;DHT22;4969;52.304;4.968;2022-10-17T14:29:25;19.66;76.74
9861;DHT22;4969;52.304;4.968;2022-10-17T14:32:04;19.59;76.60
9861;DHT22;4969;52.304;4.968;2022-10-17T14:34:34;19.59;76.78
9861;DHT22;4969;52.304;4.968;2022-10-17T14:37:07;19.72;76.70
9861;DHT22;4969;52.304;4.968;2022-10-17T14:39:35;19.75;76.00
9861;DHT22;4969;52.304;4.968;2022-10-17T14:42:02;19.68;76.49
9861;DHT22;4969;52.304;4.968;2022-10-17T14:44:30;19.71;75.94
9861;DHT22;4969;52.304;4.968;2022-10-17T14:46:59;19.71;75.93
9861;DHT22;4969;52.304;4.968;2022-10-17T14:49:36;19.42;76.75
9861;DHT22;4969;52.304;4.968;2022-10-17T14:52:11;19.34;77.18
9861;DHT22;4969;52.304;4.968;2022-10-17T14:54:38;19.48;77.10
9861;DHT22;4969;52.304;4.968;2022-10-17T14:57:08;19.57;76.95
9861;DHT22;4969;52.304;4.968;2022-10-17T14:59:40;19.44;76.69
9861;DHT22;4969;52.304;4.968;2022-10-17T15:02:07;19.28;77.13
9861;DHT22;4969;52.304;4.968;2022-10-17T15:04:35;19.23;77.39
9861;DHT22;4969;52.304;4.968;2022-10-17T15:07:02;19.14;77.83
9861;DHT22;4969;52.304;4.968;2022-10-17T15:09:29;19.10;77.95
9861;DHT22;4969;52.304;4.968;2022-10-17T15:11:58;19.23;77.86
9861;DHT22;4969;52.304;4.968;2022-10-17T15:14:25;19.45;77.47
9861;DHT22;4969;52.304;4.968;2022-10-17T15:16:51;19.42;77.04
9861;DHT22;4969;52.304;4.968;2022-10-17T15:19:18;19.26;77.32
9861;DHT22;4969;52.304;4.968;2022-10-17T15:21:46;19.41;77.05
9861;DHT22;4969;52.304;4.968;2022-10-17T15:24:13;19.47;76.70
9861;DHT22;4969;52.304;4.968;2022-10-17T15:26:40;19.33;77.20
9861;DHT22;4969;52.304;4.968;2022-10-17T15:29:06;19.28;77.13
9861;DHT22;4969;52.304;4.968;2022-10-17T15:31:33;19.27;76.90
9861;DHT22;4969;52.304;4.968;2022-10-17T15:34:00;19.26;77.83
9861;DHT22;4969;52.304;4.968;2022-10-17T15:36:28;19.26;77.06
9861;DHT22;4969;52.304;4.968;2022-10-17T15:38:58;19.13;77.63
9861;DHT22;4969;52.304;4.968;2022-10-17T15:41:27;19.27;77.64
9861;DHT22;4969;52.304;4.968;2022-10-17T15:43:55;19.34;77.42
9861;DHT22;4969;52.304;4.968;2022-10-17T15:46:23;19.28;77.05
9861;DHT22;4969;52.304;4.968;2022-10-17T15:48:50;19.11;77.74
9861;DHT22;4969;52.304;4.968;2022-10-17T15:51:17;19.23;77.60
9861;DHT22;4969;52.304;4.968;2022-10-17T15:53:45;19.26;76.99
9861;DHT22;4969;52.304;4.968;2022-10-17T15:56:19;19.03;77.48
9861;DHT22;4969;52.304;4.968;2022-10-17T15:58:47;18.97;77.91
9861;DHT22;4969;52.304;4.968;2022-10-17T16:01:18;19.31;77.74
9861;DHT22;4969;52.304;4.968;2022-10-17T16:03:45;19.26;77.51
9861;DHT22;4969;52.304;4.968;2022-10-17T16:06:14;19.13;77.46
9861;DHT22;4969;52.304;4.968;2022-10-17T16:08:41;18.92;77.85
9861;DHT22;4969;52.304;4.968;2022-10-17T16:11:11;19.17;77.67
9861;DHT22;4969;52.304;4.968;2022-10-17T16:13:44;19.17;77.56
9861;DHT22;4969;52.304;4.968;2022-10-17T16:16:12;19.13;78.03
9861;DHT22;4969;52.304;4.968;2022-10-17T16:18:39;19.52;77.41
9861;DHT22;4969;52.304;4.968;2022-10-17T16:21:05;19.31;77.91
9861;DHT22;4969;52.304;4.968;2022-10-17T16:23:34;19.14;76.85
9861;DHT22;4969;52.304;4.968;2022-10-17T16:26:01;19.04;78.49
9861;DHT22;4969;52.304;4.968;2022-10-17T16:28:27;19.10;77.59
9861;DHT22;4969;52.304;4.968;2022-10-17T16:30:55;19.26;78.58